Time;durP1;ratioP1;P1;durP2;ratioP2;P2;SDS_P1;SDS_P2;PMS_P1;PMS_P2;Temp;Humidity;BMP_temperature;BMP_pressure;BME280_temperature;BME280_humidity;BME280_pressure;Samples;Min_cycle;Max_cycle;Signal;HPM_P1;HPM_P2
2023/06/19 00:01:00;;;;;;;10.10;8.50;;;;;;;13.42;82.66;100086.39;131186;1251;108187;-86
2023/06/19 00:04:16;;;;;;;9.50;8.50;;;;;;;13.37;82.08;100086.77;131232;1251;107621;-86
2023/06/19 00:07:22;;;;;;;10.30;9.30;;;;;;;13.28;81.98;100093.80;131172;1253;107508;-86
2023/06/19 00:10:28;;;;;;;8.70;7.80;;;;;;;13.25;82.60;100100.36;131250;1253;107674;-86
2023/06/19 00:13:33;;;;;;;8.20;7.40;;;;;;;13.27;82.70;100099.95;131253;1253;107504;-86
2023/06/19 00:16:40;;;;;;;9.50;7.70;;;;;;;13.28;82.39;100097.70;131146;1251;107539;-86
2023/06/19 00:19:46;;;;;;;10.50;8.10;;;;;;;13.24;82.36;100104.06;131285;1253;107856;-85
2023/06/19 00:22:52;;;;;;;10.20;8.10;;;;;;;13.25;82.71;100097.40;131353;1253;107323;-85
2023/06/19 00:25:58;;;;;;;10.20;8.00;;;;;;;13.23;82.31;100097.47;131306;1251;107207;-86
2023/06/19 00:29:04;;;;;;;10.10;8.20;;;;;;;13.18;82.54;100099.72;131255;1253;107240;-86
2023/06/19 00:32:10;;;;;;;9.30;6.90;;;;;;;13.11;82.17;100098.93;131101;1256;107241;-86
2023/06/19 00:35:17;;;;;;;8.10;7.10;;;;;;;13.04;82.54;100103.70;131331;1252;107384;-86
2023/06/19 00:38:23;;;;;;;8.30;7.40;;;;;;;13.01;82.49;100102.73;131304;1253;107515;-86
2023/06/19 00:41:30;;;;;;;9.70;7.70;;;;;;;13.02;82.46;100102.80;131227;1253;105905;-86
2023/06/19 00:44:36;;;;;;;8.10;7.00;;;;;;;13.03;82.60;100100.45;131164;1253;107481;-85
2023/06/19 00:47:42;;;;;;;10.10;7.60;;;;;;;13.02;82.53;100101.08;131134;1253;107682;-85
2023/06/19 00:50:47;;;;;;;9.10;7.50;;;;;;;13.00;82.63;100098.02;131195;1251;107179;-85
2023/06/19 00:53:53;;;;;;;7.90;7.10;;;;;;;12.94;82.62;100097.61;131083;1256;106866;-86
2023/06/19 00:57:01;;;;;;;7.60;6.50;;;;;;;12.89;82.60;100095.85;131202;1253;107520;-85
2023/06/19 01:00:09;;;;;;;12.20;8.20;;;;;;;12.86;82.44;100095.70;131275;1253;107544;-86
2023/06/19 01:03:14;;;;;;;10.00;8.80;;;;;;;12.82;82.33;100094.56;131477;1249;107480;-87
2023/06/19 01:06:28;;;;;;;9.30;8.40;;;;;;;12.82;82.54;100098.11;131501;1251;108161;-86
2023/06/19 01:09:39;;;;;;;9.60;8.60;;;;;;;12.80;82.66;100092.09;131346;1253;107410;-86
2023/06/19 01:12:52;;;;;;;9.50;8.50;;;;;;;12.78;82.72;100094.98;131210;1251;106543;-86
2023/06/19 01:15:59;;;;;;;8.60;7.70;;;;;;;12.73;82.75;100096.55;131128;1256;107472;-87
2023/06/19 01:19:10;;;;;;;9.00;7.80;;;;;;;12.67;82.35;100096.23;131275;1251;107521;-86
2023/06/19 01:22:26;;;;;;;10.50;8.90;;;;;;;12.66;82.76;100095.07;131256;1253;107372;-86
2023/06/19 01:25:32;;;;;;;10.30;8.70;;;;;;;12.66;82.66;100093.13;131467;1253;106994;-86
2023/06/19 01:28:38;;;;;;;10.70;9.60;;;;;;;12.66;82.80;100098.48;131419;1251;107512;-86
2023/06/19 01:31:51;;;;;;;10.30;9.00;;;;;;;12.65;82.72;100105.35;131194;1253;107529;-85
2023/06/19 01:35:01;;;;;;;10.40;8.50;;;;;;;12.60;82.42;100107.13;131116;1256;107211;-85
2023/06/19 01:38:08;;;;;;;9.30;8.20;;;;;;;12.56;82.66;100107.77;131123;1256;107251;-85
2023/06/19 01:41:15;;;;;;;9.40;7.60;;;;;;;12.50;82.44;100110.16;131323;1256;107514;-86
2023/06/19 01:44:23;;;;;;;8.80;7.50;;;;;;;12.46;82.27;100116.33;131293;1256;107493;-85
2023/06/19 01:47:28;;;;;;;9.80;8.10;;;;;;;12.43;82.43;100110.95;131124;1250;107378;-85
2023/06/19 01:50:34;;;;;;;9.10;7.60;;;;;;;12.43;82.59;100112.06;131150;1254;107673;-85
2023/06/19 01:53:39;;;;;;;9.80;8.60;;;;;;;12.41;82.47;100110.29;131073;1256;106676;-85
2023/06/19 01:56:45;;;;;;;9.70;8.40;;;;;;;12.37;82.55;100106.09;130987;1255;108168;-85
2023/06/19 01:59:53;;;;;;;8.70;6.90;;;;;;;12.35;82.65;100104.15;131156;1256;108646;-84
2023/06/19 02:02:59;;;;;;;8.00;6.80;;;;;;;12.32;82.54;100103.75;130976;1256;108099;-85
2023/06/19 02:06:04;;;;;;;8.40;7.50;;;;;;;12.29;82.45;100106.27;131066;1251;288400;-85
2023/06/19 02:09:10;;;;;;;10.60;8.40;;;;;;;12.30;82.55;100109.17;131345;1251;107486;-86
2023/06/19 02:12:17;;;;;;;10.40;8.10;;;;;;;12.31;82.51;100104.65;131210;1251;108656;-86
2023/06/19 02:15:23;;;;;;;10.10;7.60;;;;;;;12.30;82.42;100103.33;131190;1251;109273;-85
2023/06/19 02:18:29;;;;;;;11.50;8.20;;;;;;;12.26;82.51;100097.50;131268;1253;107307;-85
2023/06/19 02:21:34;;;;;;;9.50;8.20;;;;;;;12.24;82.35;100095.62;131108;1251;107540;-85
2023/06/19 02:24:40;;;;;;;9.40;7.40;;;;;;;12.18;82.62;100097.23;131197;1253;107766;-86
2023/06/19 02:27:46;;;;;;;7.80;6.50;;;;;;;12.17;82.74;100098.80;131160;1254;107510;-85
2023/06/19 02:30:51;;;;;;;8.40;7.30;;;;;;;12.20;82.98;100099.91;131178;1250;107530;-85
2023/06/19 02:33:58;;;;;;;8.80;7.80;;;;;;;12.24;82.85;100101.44;131258;1253;107228;-85
2023/06/19 02:37:03;;;;;;;9.30;8.00;;;;;;;12.26;82.56;100100.38;131205;1255;107542;-84
2023/06/19 02:40:11;;;;;;;11.60;8.20;;;;;;;12.26;82.64;100098.39;131470;1253;107228;-85
2023/06/19 02:43:17;;;;;;;10.00;8.80;;;;;;;12.26;82.60;100104.44;131152;1253;107564;-81
2023/06/19 02:46:22;;;;;;;9.10;7.80;;;;;;;12.23;82.64;100102.34;131097;1257;107492;-81
2023/06/19 02:49:28;;;;;;;8.30;7.40;;;;;;;12.21;82.80;100100.20;131182;1253;107218;-83
2023/06/19 02:52:33;;;;;;;8.70;7.60;;;;;;;12.21;82.78;100100.73;131345;1253;107196;-82
2023/06/19 02:55:39;;;;;;;10.20;7.80;;;;;;;12.25;82.92;100106.02;131362;1250;107227;-82
2023/06/19 02:58:45;;;;;;;9.60;8.50;;;;;;;12.29;82.68;100109.43;131125;1251;107703;-82
2023/06/19 03:01:51;;;;;;;11.40;9.20;;;;;;;12.32;82.78;100114.98;131384;1253;107337;-83
2023/06/19 03:04:57;;;;;;;10.90;8.80;;;;;;;12.34;82.72;100113.70;130938;1260;107647;-83
2023/06/19 03:08:02;;;;;;;9.60;8.60;;;;;;;12.37;82.75;100118.23;131218;1256;107549;-83
2023/06/19 03:11:08;;;;;;;9.80;7.60;;;;;;;12.37;82.71;100114.41;131169;1255;107608;-83
2023/06/19 03:14:14;;;;;;;7.90;7.10;;;;;;;12.43;82.95;100114.84;131053;1269;107523;-83
2023/06/19 03:17:19;;;;;;;8.50;7.60;;;;;;;12.52;82.74;100117.58;130865;1257;107557;-83
2023/06/19 03:20:26;;;;;;;9.00;7.90;;;;;;;12.69;82.92;100118.45;131039;1253;107550;-83
2023/06/19 03:23:36;;;;;;;15.40;8.10;;;;;;;12.95;83.24;100115.55;131103;1257;106635;-83
2023/06/19 03:26:42;;;;;;;9.20;8.20;;;;;;;13.25;83.31;100118.11;131204;1257;107486;-83
2023/06/19 03:29:47;;;;;;;8.70;7.20;;;;;;;13.54;83.07;100112.98;131030;1259;107525;-83
2023/06/19 03:32:58;;;;;;;9.90;7.00;;;;;;;13.83;82.98;100112.99;131161;1255;107607;-83
2023/06/19 03:36:17;;;;;;;9.80;8.20;;;;;;;14.13;82.66;100111.64;131169;1255;107289;-82
2023/06/19 03:39:27;;;;;;;9.50;8.40;;;;;;;14.41;82.67;100118.98;131297;1256;107524;-82
2023/06/19 03:42:36;;;;;;;10.00;9.00;;;;;;;14.72;82.72;100119.02;131020;1256;107399;-84
2023/06/19 03:45:42;;;;;;;10.60;8.90;;;;;;;14.99;82.35;100117.71;131244;1257;107462;-82
2023/06/19 03:48:47;;;;;;;9.20;8.30;;;;;;;15.19;82.08;100119.04;131032;1268;107388;-83
2023/06/19 03:51:54;;;;;;;9.30;8.40;;;;;;;15.40;82.29;100118.97;131265;1257;107509;-82
2023/06/19 03:55:00;;;;;;;10.20;9.10;;;;;;;15.62;81.93;100115.42;131154;1260;107376;-83
2023/06/19 03:58:05;;;;;;;11.00;8.70;;;;;;;15.89;81.85;100110.73;131074;1256;108639;-82
2023/06/19 04:01:11;;;;;;;10.70;9.60;;;;;;;16.11;81.76;100114.80;131055;1251;107495;-82
2023/06/19 04:04:17;;;;;;;9.60;8.70;;;;;;;16.33;82.14;100114.74;131194;1254;108683;-82
2023/06/19 04:07:22;;;;;;;10.60;8.80;;;;;;;16.55;81.95;100114.30;131052;1256;108420;-82
2023/06/19 04:10:28;;;;;;;9.60;8.60;;;;;;;16.74;81.54;100115.36;131107;1251;106466;-83
2023/06/19 04:13:36;;;;;;;9.50;8.50;;;;;;;16.91;81.61;100113.76;131188;1253;107346;-82
2023/06/19 04:16:41;;;;;;;9.80;8.80;;;;;;;17.12;81.65;100114.66;131181;1263;107507;-83
2023/06/19 04:19:50;;;;;;;12.00;10.70;;;;;;;17.31;81.49;100115.09;131265;1254;107497;-84
2023/06/19 04:22:59;;;;;;;12.20;11.00;;;;;;;17.51;81.69;100113.55;131230;1253;107456;-83
2023/06/19 04:26:04;;;;;;;9.50;8.50;;;;;;;17.69;81.64;100115.35;131082;1263;108632;-83
2023/06/19 04:29:16;;;;;;;10.20;8.40;;;;;;;17.83;81.41;100114.91;131075;1256;107502;-83
2023/06/19 04:32:22;;;;;;;10.00;9.10;;;;;;;17.98;81.60;100113.96;131079;1254;107603;-83
2023/06/19 04:35:28;;;;;;;13.00;11.80;;;;;;;18.16;81.67;100110.95;131116;1256;107258;-83
2023/06/19 04:38:33;;;;;;;12.40;11.10;;;;;;;18.31;81.72;100116.81;131119;1256;107506;-83
2023/06/19 04:41:41;;;;;;;13.50;12.20;;;;;;;18.50;81.80;100116.95;131091;1254;107267;-83
2023/06/19 04:44:46;;;;;;;13.20;12.00;;;;;;;18.67;81.56;100119.17;131138;1251;107431;-83
2023/06/19 04:47:52;;;;;;;12.30;11.10;;;;;;;18.80;81.76;100122.80;131323;1256;107623;-83
2023/06/19 04:51:00;;;;;;;11.80;10.60;;;;;;;18.96;81.71;100126.23;131404;1254;108217;-84
2023/06/19 04:54:06;;;;;;;12.20;11.00;;;;;;;19.12;81.62;100131.77;131482;1255;107429;-84
2023/06/19 04:57:11;;;;;;;12.80;11.60;;;;;;;19.26;81.40;100129.27;131357;1258;107521;-84
2023/06/19 05:00:19;;;;;;;12.00;10.90;;;;;;;19.40;81.43;100131.25;131062;1254;107359;-83
2023/06/19 05:03:25;;;;;;;13.80;12.30;;;;;;;19.55;81.32;100135.36;131053;1261;107270;-83
2023/06/19 05:06:30;;;;;;;13.50;12.10;;;;;;;19.67;81.31;100138.77;131126;1251;106884;-83
2023/06/19 05:09:36;;;;;;;11.30;10.20;;;;;;;19.81;81.16;100142.26;131101;1264;107218;-84
2023/06/19 05:12:42;;;;;;;11.40;10.30;;;;;;;19.95;81.40;100138.06;131037;1266;108124;-84
2023/06/19 05:15:48;;;;;;;11.50;10.30;;;;;;;20.09;81.16;100137.67;131061;1254;107658;-83
2023/06/19 05:18:54;;;;;;;11.70;10.60;;;;;;;20.25;81.04;100143.02;131047;1256;107375;-83
2023/06/19 05:21:59;;;;;;;12.60;11.40;;;;;;;20.38;80.70;100140.23;131123;1264;107574;-83
2023/06/19 05:25:05;;;;;;;13.00;11.70;;;;;;;20.48;80.45;100141.82;131314;1264;107497;-83
2023/06/19 05:28:11;;;;;;;13.90;12.50;;;;;;;20.55;80.38;100140.55;131284;1264;107573;-82
2023/06/19 05:31:18;;;;;;;12.80;11.30;;;;;;;20.63;80.22;100145.33;131350;1255;107543;-83
2023/06/19 05:34:23;;;;;;;11.30;10.20;;;;;;;20.72;80.15;100143.52;131350;1256;107565;-83
2023/06/19 05:37:29;;;;;;;10.80;9.70;;;;;;;20.78;79.75;100148.66;131329;1257;107482;-83
2023/06/19 05:40:35;;;;;;;11.30;10.10;;;;;;;20.85;79.37;100149.06;131185;1255;107508;-83
2023/06/19 05:43:40;;;;;;;12.30;11.10;;;;;;;20.96;79.66;100152.75;131155;1256;108397;-83
2023/06/19 05:46:46;;;;;;;13.00;11.70;;;;;;;21.02;79.56;100156.33;131376;1264;107603;-83
2023/06/19 05:49:51;;;;;;;12.00;10.90;;;;;;;21.08;79.29;100157.67;131390;1257;106463;-83
2023/06/19 05:52:57;;;;;;;11.70;10.60;;;;;;;21.13;79.42;100158.54;131276;1264;107479;-83
2023/06/19 05:56:02;;;;;;;12.20;11.10;;;;;;;21.20;78.84;100164.19;131175;1260;107264;-83
2023/06/19 05:59:08;;;;;;;10.80;9.80;;;;;;;21.22;78.57;100162.96;131119;1256;107587;-83
2023/06/19 06:02:14;;;;;;;10.70;9.70;;;;;;;21.23;78.44;100165.67;131209;1264;107645;-83
2023/06/19 06:05:20;;;;;;;11.50;10.40;;;;;;;21.28;78.39;100175.54;131145;1256;106451;-83
2023/06/19 06:08:26;;;;;;;11.90;10.80;;;;;;;21.31;78.30;100173.59;131166;1254;107525;-84
2023/06/19 06:11:31;;;;;;;12.10;11.00;;;;;;;21.35;77.93;100177.47;131130;1255;106657;-84
2023/06/19 06:14:37;;;;;;;12.20;11.00;;;;;;;21.34;78.04;100175.35;131149;1256;107619;-85
2023/06/19 06:17:43;;;;;;;12.20;11.10;;;;;;;21.35;77.20;100176.41;131208;1260;107257;-84
2023/06/19 06:20:48;;;;;;;12.80;11.50;;;;;;;21.25;76.52;100176.34;131313;1257;107224;-84
2023/06/19 06:23:54;;;;;;;12.90;11.60;;;;;;;21.15;76.09;100180.81;131276;1256;108537;-84
2023/06/19 06:27:00;;;;;;;13.50;12.20;;;;;;;21.05;75.78;100175.49;131258;1257;107575;-84
2023/06/19 06:30:07;;;;;;;12.10;10.90;;;;;;;21.01;76.66;100177.61;131162;1256;107422;-84
2023/06/19 06:33:15;;;;;;;12.00;10.80;;;;;;;21.05;76.98;100185.17;131146;1264;107617;-84
2023/06/19 06:36:20;;;;;;;12.80;11.50;;;;;;;21.10;76.43;100181.20;131102;1260;107267;-84
2023/06/19 06:39:26;;;;;;;12.40;11.20;;;;;;;21.14;76.08;100175.61;131290;1254;107625;-83
2023/06/19 06:42:32;;;;;;;13.80;11.10;;;;;;;21.20;75.95;100173.08;131081;1253;107534;-84
2023/06/19 06:45:38;;;;;;;12.90;11.50;;;;;;;21.29;76.11;100176.95;131123;1254;108426;-85
2023/06/19 06:48:44;;;;;;;12.50;11.20;;;;;;;21.35;75.50;100176.35;131193;1263;107807;-79
2023/06/19 06:51:49;;;;;;;12.90;11.70;;;;;;;21.38;75.69;100177.10;131054;1256;107023;-80
2023/06/19 06:54:55;;;;;;;13.40;12.10;;;;;;;21.45;75.91;100178.73;131022;1263;107611;-80
2023/06/19 06:58:00;;;;;;;12.30;11.10;;;;;;;21.49;76.21;100183.32;131042;1257;107305;-80
2023/06/19 07:01:06;;;;;;;10.50;9.50;;;;;;;21.48;75.06;100182.04;131003;1263;107567;-80
2023/06/19 07:04:12;;;;;;;11.50;10.30;;;;;;;21.44;73.57;100179.02;131022;1251;107120;-80
2023/06/19 07:07:17;;;;;;;11.90;10.70;;;;;;;21.40;74.56;100179.75;131034;1263;107538;-79
2023/06/19 07:10:23;;;;;;;11.90;10.80;;;;;;;21.46;74.54;100180.67;131197;1253;107504;-79
2023/06/19 07:13:29;;;;;;;11.50;10.40;;;;;;;21.52;74.48;100179.10;131059;1253;107617;-79
2023/06/19 07:16:35;;;;;;;12.90;10.70;;;;;;;21.55;73.96;100183.69;131000;1254;106545;-80
2023/06/19 07:19:40;;;;;;;11.90;10.70;;;;;;;21.59;74.07;100186.41;131219;1259;107474;-79
2023/06/19 07:22:47;;;;;;;11.50;10.40;;;;;;;21.64;74.28;100187.48;131308;1253;107506;-79
2023/06/19 07:25:52;;;;;;;11.10;10.10;;;;;;;21.75;74.86;100189.44;131008;1257;106379;-79
2023/06/19 07:28:58;;;;;;;11.30;9.30;;;;;;;21.86;74.51;100187.83;131152;1256;106879;-79
2023/06/19 07:32:04;;;;;;;10.20;9.00;;;;;;;21.93;74.44;100190.33;131299;1263;107257;-79
2023/06/19 07:35:11;;;;;;;10.10;9.20;;;;;;;22.03;74.17;100193.90;131110;1263;108548;-79
2023/06/19 07:38:17;;;;;;;9.60;8.60;;;;;;;22.11;73.38;100189.15;131251;1254;107510;-79
2023/06/19 07:41:23;;;;;;;9.00;8.20;;;;;;;22.22;73.39;100195.53;131269;1263;105651;-79
2023/06/19 07:44:28;;;;;;;9.40;8.50;;;;;;;22.33;73.32;100203.42;131032;1254;109309;-79
2023/06/19 07:47:34;;;;;;;9.60;8.70;;;;;;;22.40;72.51;100203.91;131030;1251;107507;-79
2023/06/19 07:50:39;;;;;;;10.10;9.10;;;;;;;22.45;72.73;100200.73;131038;1254;107258;-79
2023/06/19 07:53:45;;;;;;;10.30;9.40;;;;;;;22.52;72.52;100201.63;131008;1253;107527;-77
2023/06/19 07:56:50;;;;;;;10.60;9.50;;;;;;;22.59;72.51;100200.06;131025;1253;107542;-77
2023/06/19 07:59:57;;;;;;;9.70;8.80;;;;;;;22.63;72.18;100203.19;131019;1254;107421;-77
2023/06/19 08:03:02;;;;;;;9.40;8.60;;;;;;;22.64;70.99;100204.70;131091;1263;107478;-79
2023/06/19 08:06:08;;;;;;;10.10;9.20;;;;;;;22.64;71.02;100201.40;131077;1263;107539;-79
2023/06/19 08:09:13;;;;;;;10.30;9.10;;;;;;;22.56;69.28;100201.98;131015;1254;107720;-79
2023/06/19 08:12:19;;;;;;;9.60;8.70;;;;;;;22.56;71.22;100198.60;131226;1253;106609;-79
2023/06/19 08:15:25;;;;;;;10.00;9.00;;;;;;;22.65;71.24;100198.45;131110;1253;108126;-79
2023/06/19 08:18:30;;;;;;;10.00;8.40;;;;;;;22.69;70.27;100199.22;131021;1263;108659;-79
2023/06/19 08:21:36;;;;;;;9.70;8.90;;;;;;;22.73;70.19;100196.77;131170;1251;107233;-79
2023/06/19 08:24:41;;;;;;;9.00;8.20;;;;;;;22.81;70.58;100198.23;131081;1262;107534;-79
2023/06/19 08:27:47;;;;;;;9.20;8.40;;;;;;;22.90;70.53;100193.67;131265;1255;108742;-79
2023/06/19 08:30:53;;;;;;;10.20;9.30;;;;;;;22.97;69.72;100189.33;131265;1254;107507;-79
2023/06/19 08:33:58;;;;;;;9.40;8.60;;;;;;;22.98;69.30;100190.86;131352;1254;107503;-79
2023/06/19 08:37:05;;;;;;;9.70;8.90;;;;;;;23.03;69.67;100195.35;131189;1251;107258;-79
2023/06/19 08:40:12;;;;;;;8.80;8.00;;;;;;;23.08;69.41;100190.54;131326;1249;107120;-79
2023/06/19 08:43:18;;;;;;;9.20;8.40;;;;;;;23.17;69.19;100190.47;131115;1255;107610;-79
2023/06/19 08:46:24;;;;;;;9.10;8.30;;;;;;;23.27;68.99;100188.27;131083;1254;107454;-79
2023/06/19 08:49:34;;;;;;;9.30;8.50;;;;;;;23.36;68.63;100186.45;131302;1253;107370;-80
2023/06/19 08:52:40;;;;;;;9.50;8.60;;;;;;;23.42;68.16;100185.12;131279;1253;105601;-79
2023/06/19 08:55:46;;;;;;;9.30;8.40;;;;;;;23.48;67.25;100184.80;130951;1254;107440;-79
2023/06/19 08:58:52;;;;;;;8.90;8.10;;;;;;;23.49;67.19;100184.30;130996;1254;107200;-80
2023/06/19 09:01:58;;;;;;;8.60;7.80;;;;;;;23.56;66.73;100185.36;131045;1254;107231;-79
2023/06/19 09:05:19;;;;;;;9.10;8.30;;;;;;;23.67;66.52;100182.91;131052;1254;107521;-79
2023/06/19 09:08:25;;;;;;;9.20;8.40;;;;;;;23.79;66.68;100180.83;131187;1253;107452;-79
2023/06/19 09:11:34;;;;;;;9.30;8.40;;;;;;;23.89;67.03;100176.80;131032;1261;107359;-79
2023/06/19 09:14:41;;;;;;;8.60;7.80;;;;;;;23.87;66.67;100177.73;131188;1253;107419;-79
2023/06/19 09:17:47;;;;;;;8.60;7.90;;;;;;;23.92;66.23;100180.44;131159;1251;107300;-79
2023/06/19 09:20:58;;;;;;;9.30;8.40;;;;;;;24.01;66.08;100177.83;131118;1253;106744;-79
2023/06/19 09:24:08;;;;;;;9.20;8.40;;;;;;;23.98;64.25;100177.38;131025;1251;107166;-77
2023/06/19 09:27:18;;;;;;;10.00;9.10;;;;;;;23.99;65.06;100173.59;131060;1254;107526;-78
2023/06/19 09:30:24;;;;;;;8.70;8.00;;;;;;;24.00;63.71;100172.46;131080;1261;107504;-78
2023/06/19 09:33:32;;;;;;;8.50;7.70;;;;;;;23.90;62.67;100175.11;131252;1254;107298;-78
2023/06/19 09:36:39;;;;;;;8.60;7.80;;;;;;;23.76;61.86;100173.35;131203;1254;107064;-78
2023/06/19 09:39:45;;;;;;;10.30;9.30;;;;;;;23.67;62.37;100173.70;131308;1263;107553;-78
2023/06/19 09:42:58;;;;;;;11.90;10.60;;;;;;;23.66;62.85;100173.84;131152;1254;107565;-78
2023/06/19 09:46:08;;;;;;;15.70;13.10;;;;;;;23.70;62.98;100181.61;131054;1253;106265;-78
2023/06/19 09:49:16;;;;;;;10.80;9.80;;;;;;;23.78;62.83;100178.14;131290;1254;108608;-78
2023/06/19 09:52:23;;;;;;;10.30;8.40;;;;;;;23.95;62.46;100180.11;131226;1254;107321;-78
2023/06/19 09:55:32;;;;;;;8.10;7.40;;;;;;;24.12;61.44;100173.98;131356;1251;107531;-78
2023/06/19 09:58:40;;;;;;;8.30;7.60;;;;;;;24.34;62.13;100171.27;131339;1253;107502;-78
2023/06/19 10:01:46;;;;;;;8.10;7.40;;;;;;;24.39;58.78;100174.85;131230;1262;107521;-78
2023/06/19 10:04:55;;;;;;;8.70;7.90;;;;;;;24.25;58.77;100175.83;131112;1253;107504;-78
2023/06/19 10:08:02;;;;;;;7.60;6.90;;;;;;;24.17;59.30;100175.45;131135;1254;107586;-78
2023/06/19 10:11:07;;;;;;;6.80;6.20;;;;;;;24.23;60.74;100172.45;131306;1251;107267;-78
2023/06/19 10:14:13;;;;;;;6.90;6.40;;;;;;;24.42;60.48;100168.64;131086;1253;107678;-78
2023/06/19 10:17:20;;;;;;;6.90;6.30;;;;;;;24.72;60.47;100159.17;131319;1263;107244;-78
2023/06/19 10:20:32;;;;;;;6.90;6.30;;;;;;;25.00;59.72;100159.09;131098;1262;107395;-78
2023/06/19 10:23:38;;;;;;;7.70;7.00;;;;;;;25.25;58.59;100162.36;131041;1254;107489;-78
2023/06/19 10:26:44;;;;;;;6.70;6.10;;;;;;;25.31;55.38;100161.57;131032;1263;107651;-78
2023/06/19 10:29:54;;;;;;;7.10;6.00;;;;;;;25.36;57.32;100154.58;131121;1256;106713;-78
2023/06/19 10:33:00;;;;;;;5.90;5.40;;;;;;;25.44;51.85;100152.50;131289;1253;107883;-77
2023/06/19 10:36:17;;;;;;;6.90;5.90;;;;;;;25.32;51.35;100150.15;131110;1253;107551;-78
2023/06/19 10:39:22;;;;;;;6.40;5.70;;;;;;;25.43;55.48;100146.76;131294;1255;107598;-77
2023/06/19 10:42:29;;;;;;;6.30;5.80;;;;;;;25.61;55.82;100149.38;131008;1263;107521;-77
2023/06/19 10:45:35;;;;;;;5.90;5.30;;;;;;;25.81;55.92;100146.32;131155;1264;107317;-78
2023/06/19 10:48:41;;;;;;;5.80;5.40;;;;;;;26.00;55.87;100139.05;131312;1251;107610;-78
2023/06/19 10:51:49;;;;;;;6.00;5.50;;;;;;;26.15;55.28;100138.27;131252;1253;107466;-77
2023/06/19 10:54:57;;;;;;;6.00;5.40;;;;;;;26.32;55.20;100138.46;131104;1254;107537;-79
2023/06/19 10:58:03;;;;;;;6.00;5.20;;;;;;;26.48;54.56;100140.23;131238;1254;107537;-78
2023/06/19 11:01:08;;;;;;;5.20;4.80;;;;;;;26.62;54.73;100137.69;131157;1251;107568;-78
2023/06/19 11:04:15;;;;;;;5.20;4.70;;;;;;;26.70;54.61;100138.58;131250;1255;107353;-78
2023/06/19 11:07:21;;;;;;;5.80;5.30;;;;;;;26.78;50.78;100136.22;131251;1254;107428;-75
2023/06/19 11:10:28;;;;;;;5.50;5.00;;;;;;;26.63;51.40;100138.31;131038;1254;107502;-77
2023/06/19 11:13:34;;;;;;;5.40;4.80;;;;;;;26.82;53.62;100142.42;131028;1264;107369;-78
2023/06/19 11:16:42;;;;;;;5.40;5.00;;;;;;;27.01;51.88;100137.13;131003;1251;107354;-78
2023/06/19 11:19:48;;;;;;;5.20;4.80;;;;;;;27.11;52.31;100133.41;131061;1254;107606;-77
2023/06/19 11:22:58;;;;;;;5.40;5.00;;;;;;;27.27;52.81;100130.60;131055;1254;107491;-78
2023/06/19 11:26:07;;;;;;;4.90;4.40;;;;;;;27.33;51.67;100130.63;131054;1253;107553;-78
2023/06/19 11:29:20;;;;;;;5.30;4.80;;;;;;;27.33;51.43;100129.49;131018;1253;106845;-77
2023/06/19 11:32:31;;;;;;;5.80;5.20;;;;;;;27.33;50.20;100129.92;131082;1253;107393;-77
2023/06/19 11:35:39;;;;;;;5.50;5.00;;;;;;;27.25;50.03;100128.11;131009;1254;107826;-77
2023/06/19 11:38:46;;;;;;;5.30;4.90;;;;;;;27.18;50.27;100127.03;130963;1251;107596;-77
2023/06/19 11:41:53;;;;;;;6.00;5.50;;;;;;;26.99;48.67;100132.79;130942;1251;107511;-77
2023/06/19 11:45:01;;;;;;;6.00;5.40;;;;;;;26.56;48.23;100129.80;131252;1250;107236;-78
2023/06/19 11:48:08;;;;;;;6.00;5.50;;;;;;;26.13;48.01;100128.89;131029;1256;107599;-78
2023/06/19 11:51:14;;;;;;;7.00;6.20;;;;;;;25.98;48.60;100125.67;130989;1256;108638;-78
2023/06/19 11:54:22;;;;;;;5.80;5.30;;;;;;;26.01;48.53;100124.90;131059;1254;107455;-78
2023/06/19 11:57:29;;;;;;;6.20;5.60;;;;;;;26.09;48.57;100123.66;131135;1254;107553;-77
2023/06/19 12:00:34;;;;;;;5.80;5.10;;;;;;;26.10;48.13;100123.78;131196;1255;107593;-77
2023/06/19 12:03:40;;;;;;;6.00;5.50;;;;;;;26.15;49.25;100120.48;131200;1255;108671;-77
2023/06/19 12:06:46;;;;;;;5.80;5.30;;;;;;;26.24;49.74;100112.81;131201;1254;108567;-78
2023/06/19 12:09:51;;;;;;;6.20;5.70;;;;;;;26.30;48.96;100112.08;131186;1254;107547;-77
2023/06/19 12:12:57;;;;;;;5.40;4.90;;;;;;;26.30;48.18;100113.02;131168;1254;107527;-77
2023/06/19 12:16:03;;;;;;;6.40;5.30;;;;;;;26.32;48.61;100108.92;131179;1254;107959;-77
2023/06/19 12:19:09;;;;;;;5.50;5.10;;;;;;;26.29;48.47;100113.16;131195;1254;107382;-77
2023/06/19 12:22:14;;;;;;;5.70;5.20;;;;;;;26.24;47.89;100112.58;131330;1253;107390;-78
2023/06/19 12:25:20;;;;;;;6.10;5.50;;;;;;;26.18;45.86;100113.79;131214;1253;107467;-78
2023/06/19 12:28:26;;;;;;;6.00;5.50;;;;;;;26.22;47.21;100106.05;131336;1254;107489;-78
2023/06/19 12:31:31;;;;;;;7.20;6.40;;;;;;;26.15;43.79;100114.00;131316;1255;107360;-77
2023/06/19 12:34:37;;;;;;;6.10;5.20;;;;;;;26.14;46.08;100112.02;131339;1253;107425;-78
2023/06/19 12:37:42;;;;;;;5.80;5.30;;;;;;;26.23;46.37;100109.62;131315;1251;107253;-78
2023/06/19 12:40:48;;;;;;;5.80;5.00;;;;;;;26.26;46.07;100105.87;131374;1253;107537;-78
2023/06/19 12:43:53;;;;;;;5.10;4.70;;;;;;;26.31;46.87;100096.83;131278;1253;107485;-78
2023/06/19 12:47:00;;;;;;;5.40;4.90;;;;;;;26.43;46.93;100094.02;131007;1253;106820;-77
2023/06/19 12:50:07;;;;;;;5.50;5.00;;;;;;;26.56;47.07;100094.11;131061;1253;107347;-77
2023/06/19 12:53:13;;;;;;;5.50;5.00;;;;;;;26.62;46.68;100091.45;131362;1253;107531;-77
2023/06/19 12:56:18;;;;;;;5.70;5.20;;;;;;;26.63;45.64;100089.30;131315;1254;105802;-78
2023/06/19 12:59:24;;;;;;;5.80;5.30;;;;;;;26.53;42.95;100084.84;131357;1251;107419;-77
2023/06/19 13:02:31;;;;;;;6.10;5.20;;;;;;;26.25;43.54;100085.52;131329;1255;107415;-77
2023/06/19 13:05:36;;;;;;;5.70;5.20;;;;;;;26.01;44.27;100088.54;131246;1251;107423;-77
2023/06/19 13:08:42;;;;;;;5.00;4.60;;;;;;;25.82;44.77;100085.66;131179;1254;107494;-77
2023/06/19 13:11:49;;;;;;;5.20;4.80;;;;;;;25.71;45.54;100083.89;131222;1255;107560;-78
2023/06/19 13:14:55;;;;;;;5.40;5.00;;;;;;;25.81;46.12;100079.89;131211;1254;107351;-78
2023/06/19 13:18:00;;;;;;;5.60;5.00;;;;;;;25.82;45.92;100082.80;131244;1251;108182;-77
2023/06/19 13:21:06;;;;;;;5.50;4.70;;;;;;;25.75;46.06;100082.08;131250;1254;107494;-77
2023/06/19 13:24:12;;;;;;;5.70;5.10;;;;;;;25.67;45.41;100083.48;131225;1255;107543;-77
2023/06/19 13:27:17;;;;;;;5.70;5.20;;;;;;;25.62;45.33;100084.95;131251;1264;107237;-77
2023/06/19 13:30:23;;;;;;;5.80;5.30;;;;;;;25.54;44.18;100082.45;131296;1264;106978;-78
2023/06/19 13:33:28;;;;;;;5.20;4.80;;;;;;;25.60;44.34;100077.38;131206;1264;106689;-78
2023/06/19 13:36:34;;;;;;;5.20;4.70;;;;;;;25.76;44.10;100075.59;131230;1254;107514;-78
2023/06/19 13:39:40;;;;;;;5.60;5.00;;;;;;;25.89;43.76;100077.04;131237;1251;107488;-78
2023/06/19 13:42:46;;;;;;;7.00;5.60;;;;;;;26.00;44.38;100069.44;131277;1251;107511;-77
2023/06/19 13:45:51;;;;;;;5.10;4.60;;;;;;;26.11;43.86;100067.14;131333;1253;107551;-78
2023/06/19 13:48:57;;;;;;;5.50;4.50;;;;;;;26.16;41.98;100071.27;131328;1251;107496;-78
2023/06/19 13:52:02;;;;;;;4.60;4.20;;;;;;;26.14;42.28;100069.34;131290;1251;107517;-78
2023/06/19 13:55:09;;;;;;;5.00;4.60;;;;;;;26.20;43.30;100063.05;131343;1253;107379;-78
2023/06/19 13:58:14;;;;;;;5.00;4.50;;;;;;;26.29;43.89;100056.11;131330;1250;107433;-78
2023/06/19 14:01:20;;;;;;;5.00;4.60;;;;;;;26.36;43.52;100054.52;131241;1253;107467;-77